ESST/TYF METAR and TAF weather

Enter ICAO airport designator
Station Type Date Time Source
ESST METAR 2023/05/31 23:50 UTC NOAA

ESST 312350Z AUTO VRB02KT 9999 NCD 07/01 Q1018


Station Type Date Time Source
ESST Decoded METAR 2023/05/31 23:50 UTC NOAA

Station name not available
May 31, 2023 - 07:50 PM EDT / 2023.05.31 2350 UTC
Wind: Variable at 2 MPH (2 KT):0
Visibility: greater than 7 mile(s):0
Temperature: 44 F (7 C)
Dew Point: 33 F (1 C)
Relative Humidity: 65%
Pressure (altimeter): 30.06 in. Hg (1018 hPa)
ob: ESST 312350Z AUTO VRB02KT 9999 NCD 07/01 Q1018
cycle: 0

Station Type Date Time Source
ESST TAF UTC NOAA

Error!

Example: see airport list